Time;durP1;ratioP1;P1;durP2;ratioP2;P2;SDS_P1;SDS_P2;PMS_P1;PMS_P2;Temp;Humidity;BMP_temperature;BMP_pressure;BME280_temperature;BME280_humidity;BME280_pressure;Samples;Min_cycle;Max_cycle;Signal;HPM_P1;HPM_P2
2021/04/11 00:02:46;;;;;;;;;;;;;;;;;;;;;
2021/04/11 00:05:42;;;;;;;4.23;2.43;;;;;;;;;;4228101;34;20180;-73
2021/04/11 00:08:55;;;;;;;3.90;2.67;;;;;;;;;;4227013;33;20210;-72
2021/04/11 00:11:05;;;;;;;4.60;2.90;;;;;;;;;;4283575;33;20164;-73
2021/04/11 00:13:32;;;;;;;5.60;3.03;;;;;;;;;;4286520;33;20232;-73
2021/04/11 00:16:08;;;;;;;4.63;2.67;;;;;;;;;;4302347;33;20207;-73
2021/04/11 00:18:34;;;;;;;4.80;2.73;;;;;;;;;;4304036;33;20164;-72
2021/04/11 00:21:21;;;;;;;4.10;3.10;;;;;;;;;;4316785;33;20155;-72
2021/04/11 00:23:45;;;;;;;5.30;3.13;;;;;;;;;;4317104;33;20159;-73
2021/04/11 00:26:10;;;;;;;5.03;3.37;;;;;;;;;;4316954;33;20159;-72
2021/04/11 00:28:39;;;;;;;7.03;3.37;;;;;;;;;;4316696;33;20209;-72
2021/04/11 00:31:16;;;;;;;5.70;3.50;;;;;;;;;;4316870;33;20172;-73
2021/04/11 00:33:45;;;;;;;5.73;3.30;;;;;;;;;;4317560;33;20616;-72
2021/04/11 00:36:15;;;;;;;5.60;3.53;;;;;;;;;;4315983;33;20163;-73
2021/04/11 00:38:44;;;;;;;4.93;3.63;;;;;;;;;;4316483;33;20270;-73
2021/04/11 00:41:20;;;;;;;5.13;3.53;;;;;;;;;;4316911;33;20152;-73
2021/04/11 00:43:46;;;;;;;6.77;3.93;;;;;;;;;;4317018;33;20127;-73
2021/04/11 00:46:24;;;;;;;5.27;3.70;;;;;;;;;;4316847;33;20561;-73
2021/04/11 00:48:50;;;;;;;7.57;4.00;;;;;;;;;;4315491;33;20235;-73
2021/04/11 00:51:34;;;;;;;8.37;3.60;;;;;;;;;;4316986;33;20151;-73
2021/04/11 00:54:24;;;;;;;5.83;3.67;;;;;;;;;;4316680;33;20128;-73
2021/04/11 00:57:00;;;;;;;6.57;3.80;;;;;;;;;;4320325;33;20148;-73
2021/04/11 00:59:54;;;;;;;6.10;4.20;;;;;;;;;;4331050;33;20139;-73
2021/04/11 01:02:22;;;;;;;6.83;4.50;;;;;;;;;;4331577;33;20160;-72
2021/04/11 01:05:39;;;;;;;;;;;;;;;;;;;;;
2021/04/11 01:07:48;;;;;;;6.93;4.13;;;;;;;;;;4328939;33;20202;-73
2021/04/11 01:10:40;;;;;;;6.37;4.13;;;;;;;;;;4330984;33;20474;-73
2021/04/11 01:13:19;;;;;;;9.50;4.40;;;;;;;;;;4329178;33;20226;-73
2021/04/11 01:15:48;;;;;;;6.10;3.70;;;;;;;;;;4331021;33;20174;-73
2021/04/11 01:18:13;;;;;;;6.07;3.77;;;;;;;;;;4330549;33;20140;-73
2021/04/11 01:20:42;;;;;;;6.33;3.97;;;;;;;;;;4341744;33;20185;-73
2021/04/11 01:23:35;;;;;;;8.37;3.97;;;;;;;;;;4330560;33;20159;-73
2021/04/11 01:26:07;;;;;;;6.23;3.70;;;;;;;;;;4331381;33;20154;-73
2021/04/11 01:28:37;;;;;;;6.10;4.23;;;;;;;;;;4331012;33;20139;-72
2021/04/11 01:31:06;;;;;;;6.20;4.10;;;;;;;;;;4330438;33;20136;-73
2021/04/11 01:36:56;;;;;;;8.57;4.40;;;;;;;;;;4325528;33;20217;-73
2021/04/11 01:39:57;;;;;;;6.37;4.03;;;;;;;;;;4285137;33;20175;-73
2021/04/11 01:42:23;;;;;;;7.40;4.47;;;;;;;;;;4285106;33;20568;-73
2021/04/11 01:44:50;;;;;;;9.97;4.70;;;;;;;;;;4284882;33;20137;-73
2021/04/11 01:47:22;;;;;;;11.07;4.77;;;;;;;;;;4272609;33;20160;-73
2021/04/11 01:49:50;;;;;;;6.53;4.20;;;;;;;;;;4272609;33;20643;-73
2021/04/11 01:52:24;;;;;;;7.83;4.50;;;;;;;;;;4285026;33;20156;-73
2021/04/11 01:54:50;;;;;;;6.53;3.87;;;;;;;;;;4325486;33;20144;-73
2021/04/11 01:57:35;;;;;;;9.87;4.90;;;;;;;;;;4330267;33;20209;-74
2021/04/11 02:00:10;;;;;;;7.13;4.03;;;;;;;;;;4330201;33;20168;-73
2021/04/11 02:02:35;;;;;;;6.70;3.73;;;;;;;;;;4330441;33;20127;-73
2021/04/11 02:05:18;;;;;;;7.47;4.20;;;;;;;;;;4330281;33;20217;-73
2021/04/11 02:07:44;;;;;;;5.67;3.43;;;;;;;;;;4331052;33;20127;-74
2021/04/11 02:10:14;;;;;;;5.93;3.67;;;;;;;;;;4328856;33;20152;-73
2021/04/11 02:12:59;;;;;;;4.90;3.10;;;;;;;;;;4330203;33;20155;-73
2021/04/11 02:15:57;;;;;;;;;;;;;;;;;;;;;
2021/04/11 02:18:32;;;;;;;6.50;2.93;;;;;;;;;;4285199;33;20173;-73
2021/04/11 02:21:01;;;;;;;6.27;3.00;;;;;;;;;;4284856;33;20148;-73
2021/04/11 02:27:03;;;;;;;4.13;2.70;;;;;;;;;;4281462;33;20332;-73
2021/04/11 02:29:29;;;;;;;5.50;3.30;;;;;;;;;;4253398;33;20195;-73
2021/04/11 02:35:08;;;;;;;7.20;3.70;;;;;;;;;;4318176;33;20202;-73
2021/04/11 02:37:35;;;;;;;7.30;4.03;;;;;;;;;;4329837;33;20191;-73
2021/04/11 02:40:01;;;;;;;8.53;4.20;;;;;;;;;;4330076;33;20151;-73
2021/04/11 02:42:31;;;;;;;8.97;4.53;;;;;;;;;;4329232;33;20190;-73
2021/04/11 02:45:01;;;;;;;9.80;4.70;;;;;;;;;;4329744;33;20165;-73
2021/04/11 02:47:26;;;;;;;7.23;4.40;;;;;;;;;;4330343;33;20139;-73
2021/04/11 02:49:56;;;;;;;8.50;4.80;;;;;;;;;;4330563;33;20501;-73
2021/04/11 02:52:31;;;;;;;5.97;4.37;;;;;;;;;;4330355;33;20132;-73
2021/04/11 02:55:00;;;;;;;8.33;5.07;;;;;;;;;;4330435;33;20128;-73
2021/04/11 02:57:59;;;;;;;8.20;4.30;;;;;;;;;;4329438;33;20182;-73
2021/04/11 03:00:26;;;;;;;7.43;3.87;;;;;;;;;;4332539;33;20210;-73
2021/04/11 03:02:55;;;;;;;6.77;3.60;;;;;;;;;;4332834;33;20140;-73
2021/04/11 03:05:23;;;;;;;7.00;3.97;;;;;;;;;;4332787;33;20139;-73
2021/04/11 03:08:12;;;;;;;6.83;4.00;;;;;;;;;;4332470;33;20159;-73
2021/04/11 03:11:13;;;;;;;;;;;;;;;;;;;;;
2021/04/11 03:14:10;;;;;;;6.77;3.43;;;;;;;;;;4328638;33;20171;-73
2021/04/11 03:16:51;;;;;;;5.30;3.03;;;;;;;;;;4286857;33;20207;-73
2021/04/11 03:19:27;;;;;;;4.03;2.87;;;;;;;;;;4287000;33;20167;-73
2021/04/11 03:25:19;;;;;;;4.57;2.80;;;;;;;;;;4271108;33;20153;-73
2021/04/11 03:28:16;;;;;;;7.17;3.00;;;;;;;;;;4332430;33;20163;-73
2021/04/11 03:41:05;;;;;;;5.23;2.60;;;;;;;;;;4188200;34;20147;-73
2021/04/11 03:43:51;;;;;;;6.47;2.40;;;;;;;;;;4188452;34;20205;-73
2021/04/11 03:46:35;;;;;;;4.70;2.60;;;;;;;;;;4198991;34;20154;-73
2021/04/11 03:49:13;;;;;;;5.90;2.13;;;;;;;;;;4288557;33;20268;-73
2021/04/11 03:51:47;;;;;;;4.80;2.40;;;;;;;;;;4321365;33;20190;-73
2021/04/11 03:54:14;;;;;;;4.97;2.80;;;;;;;;;;4332332;33;20170;-73
2021/04/11 03:56:59;;;;;;;6.70;2.80;;;;;;;;;;4331444;33;20177;-73
2021/04/11 03:59:44;;;;;;;4.70;2.50;;;;;;;;;;4332637;33;20297;-73
2021/04/11 04:02:11;;;;;;;5.57;2.40;;;;;;;;;;4332054;33;20132;-73
2021/04/11 04:04:48;;;;;;;;;;;;;;;;;;;;;
2021/04/11 04:07:16;;;;;;;5.03;1.97;;;;;;;;;;4332185;33;20150;-73
2021/04/11 04:09:43;;;;;;;3.80;1.90;;;;;;;;;;4331458;33;20260;-73
2021/04/11 04:12:16;;;;;;;4.53;1.70;;;;;;;;;;4332019;33;20212;-73
2021/04/11 04:14:49;;;;;;;8.53;1.90;;;;;;;;;;4332213;33;20170;-73
2021/04/11 04:17:33;;;;;;;4.27;1.80;;;;;;;;;;4317319;33;20175;-73
2021/04/11 04:23:44;;;;;;;5.30;1.83;;;;;;;;;;4300492;33;20132;-73
2021/04/11 04:26:27;;;;;;;4.03;1.50;;;;;;;;;;4271896;33;20145;-73
2021/04/11 04:29:14;;;;;;;3.27;1.70;;;;;;;;;;4271642;33;20223;-73
2021/04/11 04:32:08;;;;;;;3.47;1.53;;;;;;;;;;4297177;33;20171;-73
2021/04/11 04:35:02;;;;;;;8.90;1.70;;;;;;;;;;4317252;33;20503;-73
2021/04/11 04:38:19;;;;;;;4.20;1.30;;;;;;;;;;4331582;33;20154;-73
2021/04/11 04:41:18;;;;;;;;;;;;;;;;;;;;;
2021/04/11 04:44:05;;;;;;;4.07;1.50;;;;;;;;;;4330635;33;20604;-73
2021/04/11 04:46:53;;;;;;;3.90;1.60;;;;;;;;;;4317705;33;20555;-73
2021/04/11 04:49:27;;;;;;;3.13;1.60;;;;;;;;;;4331363;33;20147;-74
2021/04/11 04:51:56;;;;;;;5.37;1.70;;;;;;;;;;4331274;33;20178;-73
2021/04/11 04:54:46;;;;;;;4.90;2.03;;;;;;;;;;4331470;33;20175;-74
2021/04/11 04:57:48;;;;;;;5.43;1.70;;;;;;;;;;4331404;33;20577;-74
2021/04/11 05:03:12;;;;;;;5.50;1.77;;;;;;;;;;4331591;33;20190;-73
2021/04/11 05:05:48;;;;;;;4.77;1.47;;;;;;;;;;4299386;33;20306;-74
2021/04/11 05:08:22;;;;;;;3.00;1.73;;;;;;;;;;4328309;33;20143;-73
2021/04/11 05:10:57;;;;;;;3.63;1.70;;;;;;;;;;4330823;33;20138;-74
2021/04/11 05:13:26;;;;;;;2.77;1.40;;;;;;;;;;4330656;33;20162;-74
2021/04/11 05:15:59;;;;;;;4.23;1.47;;;;;;;;;;4330552;33;20148;-74
2021/04/11 05:18:30;;;;;;;3.40;1.50;;;;;;;;;;4331136;33;20599;-74
2021/04/11 05:20:59;;;;;;;5.03;1.60;;;;;;;;;;4331158;33;20151;-74
2021/04/11 05:23:43;;;;;;;3.93;1.60;;;;;;;;;;4330824;33;20167;-74
2021/04/11 05:26:37;;;;;;;4.77;1.53;;;;;;;;;;4330622;33;20477;-74
2021/04/11 05:29:21;;;;;;;1.97;1.13;;;;;;;;;;4330453;33;20534;-75
2021/04/11 05:32:01;;;;;;;3.73;1.30;;;;;;;;;;4329121;33;20676;-74
2021/04/11 05:37:50;;;;;;;;;;;;;;;;;;;;;
2021/04/11 05:40:26;;;;;;;5.57;1.40;;;;;;;;;;4330709;33;20147;-74
2021/04/11 05:42:52;;;;;;;4.47;1.40;;;;;;;;;;4330927;33;20174;-74
2021/04/11 05:45:48;;;;;;;3.10;1.30;;;;;;;;;;4317266;33;20155;-74
2021/04/11 05:48:32;;;;;;;4.20;1.30;;;;;;;;;;4330836;33;20191;-74
2021/04/11 05:51:17;;;;;;;1.80;1.40;;;;;;;;;;4330596;33;20191;-74
2021/04/11 05:53:46;;;;;;;3.93;1.10;;;;;;;;;;4330731;33;20182;-74
2021/04/11 05:56:13;;;;;;;6.63;1.33;;;;;;;;;;4330493;33;20158;-74
2021/04/11 05:58:39;;;;;;;2.67;1.00;;;;;;;;;;4330046;33;20616;-74
2021/04/11 06:04:16;;;;;;;3.33;1.30;;;;;;;;;;4328266;33;20162;-74
2021/04/11 06:06:51;;;;;;;8.40;1.40;;;;;;;;;;4330895;33;20208;-74
2021/04/11 06:12:42;;;;;;;2.53;1.20;;;;;;;;;;4330823;33;20165;-74
2021/04/11 06:15:31;;;;;;;3.47;1.07;;;;;;;;;;4330205;33;20218;-74
2021/04/11 06:21:21;;;;;;;3.60;1.10;;;;;;;;;;4299258;33;20165;-74
2021/04/11 06:24:33;;;;;;;5.10;1.20;;;;;;;;;;4279637;33;20179;-74
2021/04/11 06:30:15;;;;;;;4.90;1.10;;;;;;;;;;4240613;33;20153;-73
2021/04/11 06:42:31;;;;;;;8.03;1.93;;;;;;;;;;4287398;33;20191;-74
2021/04/11 06:45:15;;;;;;;4.13;1.10;;;;;;;;;;4299128;33;20145;-74
2021/04/11 06:48:16;;;;;;;5.40;1.30;;;;;;;;;;4301631;33;20547;-73
2021/04/11 06:51:16;;;;;;;;;;;;;;;;;;;;;
2021/04/11 06:57:02;;;;;;;4.83;1.50;;;;;;;;;;4317854;33;20546;-73
2021/04/11 06:59:50;;;;;;;4.47;1.23;;;;;;;;;;4318583;33;20140;-73
2021/04/11 07:02:34;;;;;;;5.63;1.20;;;;;;;;;;4317614;33;20186;-73
2021/04/11 07:05:24;;;;;;;3.07;1.13;;;;;;;;;;4317836;33;20160;-73
2021/04/11 07:15:10;;;;;;;4.43;1.10;;;;;;;;;;4287034;33;20617;-75
2021/04/11 07:18:14;;;;;;;3.93;1.40;;;;;;;;;;4286889;33;20164;-74
2021/04/11 07:20:59;;;;;;;4.37;1.00;;;;;;;;;;4293153;33;20199;-71
2021/04/11 07:23:55;;;;;;;;;;;;;;;;;;;;;
2021/04/11 07:26:59;;;;;;;5.60;1.20;;;;;;;;;;4321102;33;20246;-74
2021/04/11 07:30:04;;;;;;;2.57;1.33;;;;;;;;;;4317709;33;20159;-74
2021/04/11 07:32:42;;;;;;;4.47;1.20;;;;;;;;;;4317882;33;20163;-74
2021/04/11 07:35:07;;;;;;;6.33;1.30;;;;;;;;;;4317310;33;20132;-73
2021/04/11 07:38:03;;;;;;;4.60;1.20;;;;;;;;;;4317221;33;20167;-73
2021/04/11 07:40:34;;;;;;;7.20;1.23;;;;;;;;;;4317312;33;20164;-74
2021/04/11 07:43:20;;;;;;;5.87;1.30;;;;;;;;;;4328012;33;20231;-73
2021/04/11 07:45:50;;;;;;;5.30;1.07;;;;;;;;;;4316777;33;20195;-73
2021/04/11 07:48:15;;;;;;;4.13;1.00;;;;;;;;;;4316876;33;20128;-74
2021/04/11 07:50:46;;;;;;;3.83;0.90;;;;;;;;;;4318228;33;20442;-74
2021/04/11 07:53:26;;;;;;;4.10;1.07;;;;;;;;;;4317445;33;20140;-73
2021/04/11 07:56:09;;;;;;;1.63;0.80;;;;;;;;;;4317562;33;20151;-73
2021/04/11 07:58:53;;;;;;;2.93;1.03;;;;;;;;;;4315453;33;20222;-74
2021/04/11 08:01:34;;;;;;;2.73;0.90;;;;;;;;;;4315513;33;20166;-73
2021/04/11 08:04:11;;;;;;;3.73;0.97;;;;;;;;;;4316673;33;20206;-74
2021/04/11 08:06:50;;;;;;;3.87;0.80;;;;;;;;;;4327360;33;20156;-73
2021/04/11 08:09:15;;;;;;;2.97;0.90;;;;;;;;;;4327297;33;20646;-73
2021/04/11 08:11:47;;;;;;;4.37;0.83;;;;;;;;;;4331876;33;20124;-74
2021/04/11 08:14:25;;;;;;;5.80;1.00;;;;;;;;;;4330876;33;20171;-74
2021/04/11 08:17:04;;;;;;;3.63;0.90;;;;;;;;;;4331899;33;20140;-72
2021/04/11 08:19:38;;;;;;;3.70;1.20;;;;;;;;;;4331459;33;20136;-72
2021/04/11 08:22:22;;;;;;;2.27;1.00;;;;;;;;;;4329802;33;20193;-74
2021/04/11 08:25:06;;;;;;;2.80;0.90;;;;;;;;;;4331574;33;20162;-73
2021/04/11 08:27:34;;;;;;;2.27;0.83;;;;;;;;;;4331769;33;20147;-73
2021/04/11 08:30:10;;;;;;;2.17;1.10;;;;;;;;;;4329651;33;20222;-74
2021/04/11 08:32:58;;;;;;;5.27;1.10;;;;;;;;;;4330944;33;20140;-68
2021/04/11 08:35:38;;;;;;;2.83;1.00;;;;;;;;;;4331037;33;20144;-74
2021/04/11 08:38:14;;;;;;;3.93;0.90;;;;;;;;;;4331668;33;20131;-73
2021/04/11 08:40:51;;;;;;;3.67;1.03;;;;;;;;;;4331848;33;20155;-74
2021/04/11 08:43:35;;;;;;;4.63;1.20;;;;;;;;;;4330720;33;20480;-74
2021/04/11 08:46:19;;;;;;;3.63;1.00;;;;;;;;;;4331464;33;20474;-73
2021/04/11 08:49:03;;;;;;;2.93;1.00;;;;;;;;;;4330482;33;20238;-74
2021/04/11 08:51:47;;;;;;;2.77;0.97;;;;;;;;;;4330825;33;20178;-73
2021/04/11 08:54:31;;;;;;;5.70;0.87;;;;;;;;;;4331359;33;20153;-74
2021/04/11 08:57:27;;;;;;;2.40;0.97;;;;;;;;;;4330231;33;20172;-73
2021/04/11 09:00:14;;;;;;;4.13;1.10;;;;;;;;;;4299448;33;20168;-73
2021/04/11 09:02:58;;;;;;;3.87;1.00;;;;;;;;;;4316392;33;20136;-74
2021/04/11 09:05:39;;;;;;;2.47;1.00;;;;;;;;;;4316330;33;20162;-74
2021/04/11 09:08:30;;;;;;;5.27;0.87;;;;;;;;;;4316365;33;20172;-74
2021/04/11 09:11:33;;;;;;;2.10;0.70;;;;;;;;;;4315892;33;20680;-73
2021/04/11 09:14:27;;;;;;;3.27;0.77;;;;;;;;;;4326907;33;20590;-73
2021/04/11 09:17:11;;;;;;;1.70;0.80;;;;;;;;;;4315815;33;20171;-74
2021/04/11 09:20:22;;;;;;;3.20;0.90;;;;;;;;;;4314509;33;20168;-74
2021/04/11 09:23:53;;;;;;;1.77;1.00;;;;;;;;;;4315049;33;20199;-74
2021/04/11 09:26:00;;;;;;;1.63;0.80;;;;;;;;;;4311907;33;20172;-73
2021/04/11 09:28:44;;;;;;;1.93;0.70;;;;;;;;;;4316157;33;20561;-74
2021/04/11 09:31:24;;;;;;;1.93;0.73;;;;;;;;;;4316038;33;20182;-73
2021/04/11 09:34:01;;;;;;;5.27;0.73;;;;;;;;;;4315741;33;20182;-72
2021/04/11 09:36:47;;;;;;;2.90;0.80;;;;;;;;;;4314383;33;20572;-75
2021/04/11 09:39:36;;;;;;;4.53;0.90;;;;;;;;;;4315342;33;20186;-75
2021/04/11 09:42:37;;;;;;;2.77;0.90;;;;;;;;;;4315516;33;20628;-73
2021/04/11 09:48:41;;;;;;;4.00;0.90;;;;;;;;;;4298886;33;20207;-73
2021/04/11 09:51:14;;;;;;;3.23;0.83;;;;;;;;;;4315630;33;20140;-73
2021/04/11 09:53:53;;;;;;;3.90;1.00;;;;;;;;;;4315676;33;20184;-73
2021/04/11 09:56:22;;;;;;;2.57;1.47;;;;;;;;;;4315558;33;20539;-74
2021/04/11 09:58:50;;;;;;;4.20;0.90;;;;;;;;;;4314674;33;20610;-74
2021/04/11 10:01:19;;;;;;;3.17;1.30;;;;;;;;;;4315772;33;20151;-72
2021/04/11 10:04:04;;;;;;;1.53;1.00;;;;;;;;;;4314072;33;20212;-73
2021/04/11 10:06:29;;;;;;;2.50;0.90;;;;;;;;;;4314963;33;20589;-73
2021/04/11 10:09:13;;;;;;;2.03;0.80;;;;;;;;;;4317752;33;20184;-73
2021/04/11 10:12:01;;;;;;;3.50;1.00;;;;;;;;;;4318673;33;20203;-74
2021/04/11 10:14:35;;;;;;;0.90;0.70;;;;;;;;;;4318608;33;20649;-74
2021/04/11 10:17:07;;;;;;;4.47;1.40;;;;;;;;;;4317380;33;20207;-75
2021/04/11 10:19:51;;;;;;;2.37;1.10;;;;;;;;;;4324332;33;20187;-74
2021/04/11 10:22:34;;;;;;;3.87;1.20;;;;;;;;;;4333176;33;20144;-75
2021/04/11 10:25:11;;;;;;;2.20;1.00;;;;;;;;;;4333501;33;20163;-73
2021/04/11 10:27:39;;;;;;;3.93;1.50;;;;;;;;;;4332666;33;20148;-73
2021/04/11 10:30:05;;;;;;;5.47;0.80;;;;;;;;;;4332180;33;20156;-73
2021/04/11 10:32:44;;;;;;;5.30;1.00;;;;;;;;;;4333004;33;20174;-73
2021/04/11 10:35:21;;;;;;;4.90;0.90;;;;;;;;;;4332863;33;20228;-73
2021/04/11 10:38:03;;;;;;;4.27;1.00;;;;;;;;;;4332724;33;20147;-74
2021/04/11 10:40:47;;;;;;;3.03;0.73;;;;;;;;;;4328247;33;20164;-72
2021/04/11 10:43:30;;;;;;;4.63;0.70;;;;;;;;;;4317725;33;20175;-72
2021/04/11 10:46:16;;;;;;;4.70;0.83;;;;;;;;;;4318005;33;20163;-75
2021/04/11 10:49:00;;;;;;;3.27;0.70;;;;;;;;;;4322374;33;20195;-75
2021/04/11 10:51:40;;;;;;;3.00;0.90;;;;;;;;;;4328251;33;20156;-75
2021/04/11 10:54:24;;;;;;;2.57;0.60;;;;;;;;;;4330031;33;20219;-74
2021/04/11 10:57:05;;;;;;;1.60;0.70;;;;;;;;;;4331043;33;20140;-74
2021/04/11 10:59:43;;;;;;;1.60;0.70;;;;;;;;;;4330966;33;20346;-75
2021/04/11 11:02:27;;;;;;;4.87;1.10;;;;;;;;;;4330069;33;20234;-74
2021/04/11 11:05:04;;;;;;;1.73;0.70;;;;;;;;;;4330839;33;20211;-74
2021/04/11 11:07:47;;;;;;;3.13;0.80;;;;;;;;;;4332277;33;20136;-73
2021/04/11 11:10:31;;;;;;;4.07;0.77;;;;;;;;;;4333524;33;20514;-75
2021/04/11 11:12:59;;;;;;;1.47;0.83;;;;;;;;;;4332568;33;20147;-74
2021/04/11 11:15:36;;;;;;;1.33;0.70;;;;;;;;;;4332313;33;20187;-73
2021/04/11 11:18:01;;;;;;;1.85;0.90;;;;;;;;;;4332233;33;20155;-73
2021/04/11 11:20:45;;;;;;;4.68;0.90;;;;;;;;;;4331552;33;20178;-73
2021/04/11 11:23:23;;;;;;;5.80;0.93;;;;;;;;;;4332344;33;20599;-74
2021/04/11 11:26:07;;;;;;;4.95;0.90;;;;;;;;;;4322552;33;20611;-75
2021/04/11 11:28:59;;;;;;;3.12;1.00;;;;;;;;;;4317436;33;20528;-74
2021/04/11 11:31:45;;;;;;;4.00;0.93;;;;;;;;;;4317285;33;20179;-74
2021/04/11 11:34:28;;;;;;;4.25;0.93;;;;;;;;;;4318260;33;20178;-73
2021/04/11 11:37:04;;;;;;;3.97;0.73;;;;;;;;;;4318176;33;20579;-74
2021/04/11 11:39:51;;;;;;;5.57;0.90;;;;;;;;;;4330005;33;20198;-73
2021/04/11 11:42:17;;;;;;;3.03;1.25;;;;;;;;;;4330880;33;20147;-73
2021/04/11 11:45:01;;;;;;;4.15;0.73;;;;;;;;;;4331794;33;20199;-73
2021/04/11 11:47:49;;;;;;;4.30;1.00;;;;;;;;;;4332126;33;20642;-73
2021/04/11 11:50:47;;;;;;;3.28;1.00;;;;;;;;;;4331855;33;20176;-73
2021/04/11 11:53:32;;;;;;;3.63;1.40;;;;;;;;;;4307638;33;20156;-73
2021/04/11 11:56:04;;;;;;;2.80;1.17;;;;;;;;;;4317036;33;20445;-73
2021/04/11 11:58:36;;;;;;;2.28;0.90;;;;;;;;;;4327109;33;20175;-74
2021/04/11 12:01:04;;;;;;;1.65;0.85;;;;;;;;;;4331796;33;20144;-72
2021/04/11 12:03:42;;;;;;;2.33;0.98;;;;;;;;;;4331675;33;20167;-73
2021/04/11 12:06:21;;;;;;;2.67;0.90;;;;;;;;;;4331438;33;20139;-73
2021/04/11 12:09:03;;;;;;;2.65;0.80;;;;;;;;;;4330527;33;20508;-74
2021/04/11 12:11:41;;;;;;;4.22;1.25;;;;;;;;;;4331063;33;20140;-70
2021/04/11 12:14:18;;;;;;;4.30;1.30;;;;;;;;;;4330367;33;20171;-75
2021/04/11 12:16:46;;;;;;;3.60;0.88;;;;;;;;;;4330765;33;20151;-73
2021/04/11 12:19:25;;;;;;;2.08;0.90;;;;;;;;;;4331136;33;20167;-72
2021/04/11 12:22:04;;;;;;;5.32;1.02;;;;;;;;;;4332024;33;20144;-72
2021/04/11 12:24:31;;;;;;;4.53;1.00;;;;;;;;;;4331563;33;20136;-75
2021/04/11 12:26:58;;;;;;;3.83;0.90;;;;;;;;;;4331116;33;20545;-73
2021/04/11 12:29:26;;;;;;;5.18;1.10;;;;;;;;;;4329730;33;20182;-75
2021/04/11 12:32:05;;;;;;;3.33;0.70;;;;;;;;;;4330819;33;20140;-72
2021/04/11 12:34:45;;;;;;;3.25;0.70;;;;;;;;;;4331400;33;20140;-74
2021/04/11 12:37:28;;;;;;;6.00;3.17;;;;;;;;;;4330795;33;20207;-70
2021/04/11 12:40:02;;;;;;;4.03;0.80;;;;;;;;;;4330922;33;20143;-73
2021/04/11 12:42:30;;;;;;;1.80;0.80;;;;;;;;;;4330961;33;20158;-74
2021/04/11 12:45:34;;;;;;;1.85;0.60;;;;;;;;;;4331990;33;20175;-73
2021/04/11 12:48:11;;;;;;;5.32;0.62;;;;;;;;;;4285729;33;20578;-73
2021/04/11 12:50:41;;;;;;;4.37;1.10;;;;;;;;;;4285209;33;20171;-73
2021/04/11 12:53:18;;;;;;;1.45;0.65;;;;;;;;;;4310835;33;20202;-72
2021/04/11 12:55:49;;;;;;;2.78;0.82;;;;;;;;;;4330720;33;20166;-73
2021/04/11 12:58:40;;;;;;;2.83;0.98;;;;;;;;;;4330988;33;20506;-73
2021/04/11 13:01:11;;;;;;;3.92;0.70;;;;;;;;;;4331161;33;20206;-73
2021/04/11 13:03:39;;;;;;;2.62;0.73;;;;;;;;;;4330831;33;20199;-73
2021/04/11 13:06:09;;;;;;;1.73;0.70;;;;;;;;;;4330692;33;20147;-73
2021/04/11 13:08:38;;;;;;;5.43;0.80;;;;;;;;;;4331257;33;20569;-70
2021/04/11 13:11:06;;;;;;;1.73;0.73;;;;;;;;;;4330845;33;20202;-73
2021/04/11 13:13:56;;;;;;;4.25;0.95;;;;;;;;;;4329247;33;20168;-73
2021/04/11 13:16:24;;;;;;;1.35;0.57;;;;;;;;;;4329562;33;20578;-74
2021/04/11 13:19:01;;;;;;;1.50;0.50;;;;;;;;;;4330580;33;20148;-74
2021/04/11 13:21:30;;;;;;;1.23;0.65;;;;;;;;;;4316613;33;20185;-72
2021/04/11 13:23:55;;;;;;;5.72;1.35;;;;;;;;;;4321616;33;20184;-73
2021/04/11 13:26:40;;;;;;;3.70;0.77;;;;;;;;;;4329978;33;20191;-71
2021/04/11 13:29:17;;;;;;;4.28;0.88;;;;;;;;;;4330410;33;20160;-71
2021/04/11 13:31:42;;;;;;;2.85;0.70;;;;;;;;;;4331971;33;20530;-74
2021/04/11 13:34:15;;;;;;;3.03;0.50;;;;;;;;;;4330479;33;20466;-73
2021/04/11 13:36:41;;;;;;;3.55;0.60;;;;;;;;;;4330789;33;20148;-72
2021/04/11 13:39:25;;;;;;;1.15;0.60;;;;;;;;;;4329735;33;20147;-73
2021/04/11 13:42:03;;;;;;;2.58;0.60;;;;;;;;;;4329334;33;20135;-73
2021/04/11 13:44:47;;;;;;;3.50;0.82;;;;;;;;;;4330676;33;20193;-70
2021/04/11 13:47:30;;;;;;;2.10;0.75;;;;;;;;;;4330515;33;20258;-73
2021/04/11 13:49:59;;;;;;;3.83;0.82;;;;;;;;;;4328922;33;20532;-74
2021/04/11 13:52:27;;;;;;;1.80;0.60;;;;;;;;;;4330430;33;20131;-72
2021/04/11 13:55:25;;;;;;;2.33;0.70;;;;;;;;;;4330763;33;20211;-71
2021/04/11 13:58:00;;;;;;;2.05;0.70;;;;;;;;;;4313104;33;20179;-72
2021/04/11 14:00:26;;;;;;;4.60;0.80;;;;;;;;;;4330894;33;20217;-73
2021/04/11 14:02:51;;;;;;;1.67;0.50;;;;;;;;;;4330206;33;20139;-71
2021/04/11 14:05:25;;;;;;;2.70;0.70;;;;;;;;;;4329985;33;20155;-73
2021/04/11 14:07:59;;;;;;;2.75;0.77;;;;;;;;;;4329757;33;20442;-73
2021/04/11 14:10:24;;;;;;;0.60;0.50;;;;;;;;;;4329851;33;20140;-73
2021/04/11 14:12:49;;;;;;;2.90;0.75;;;;;;;;;;4329815;33;20135;-71
2021/04/11 14:15:22;;;;;;;2.20;0.55;;;;;;;;;;4329899;33;20303;-73
2021/04/11 14:17:57;;;;;;;3.15;0.68;;;;;;;;;;4329549;33;20143;-71
2021/04/11 14:20:40;;;;;;;1.77;0.50;;;;;;;;;;4329815;33;20166;-69
2021/04/11 14:23:14;;;;;;;2.15;0.73;;;;;;;;;;4330306;33;20167;-74
2021/04/11 14:25:42;;;;;;;2.33;0.75;;;;;;;;;;4330445;33;20132;-72
2021/04/11 14:28:18;;;;;;;2.90;0.70;;;;;;;;;;4330957;33;20191;-72
2021/04/11 14:30:44;;;;;;;3.15;0.70;;;;;;;;;;4330601;33;20202;-71
2021/04/11 14:33:19;;;;;;;4.25;0.93;;;;;;;;;;4330463;33;20136;-71
2021/04/11 14:35:55;;;;;;;2.47;0.90;;;;;;;;;;4330181;33;20240;-71
2021/04/11 14:38:26;;;;;;;2.30;0.90;;;;;;;;;;4329626;33;20557;-72
2021/04/11 14:40:57;;;;;;;3.50;0.80;;;;;;;;;;4329938;33;20219;-71
2021/04/11 14:43:25;;;;;;;2.95;1.00;;;;;;;;;;4330973;33;20145;-73
2021/04/11 14:45:52;;;;;;;2.47;0.80;;;;;;;;;;4331297;33;20170;-73
2021/04/11 14:48:22;;;;;;;3.08;0.70;;;;;;;;;;4330027;33;20144;-70
2021/04/11 14:50:47;;;;;;;3.37;0.80;;;;;;;;;;4329357;33;20213;-72
2021/04/11 14:53:19;;;;;;;2.08;0.98;;;;;;;;;;4328468;33;20590;-73
2021/04/11 14:55:58;;;;;;;1.83;0.98;;;;;;;;;;4331631;33;20152;-70
2021/04/11 14:58:37;;;;;;;2.60;1.00;;;;;;;;;;4331893;33;20322;-70
2021/04/11 15:01:07;;;;;;;3.03;0.77;;;;;;;;;;4332652;33;20139;-73
2021/04/11 15:03:48;;;;;;;1.73;0.50;;;;;;;;;;4332112;33;20238;-73
2021/04/11 15:06:21;;;;;;;3.92;0.75;;;;;;;;;;4331122;33;20187;-72
2021/04/11 15:09:08;;;;;;;1.80;0.60;;;;;;;;;;4330645;33;20218;-74
2021/04/11 15:11:36;;;;;;;6.10;0.80;;;;;;;;;;4331829;33;20139;-72
2021/04/11 15:14:06;;;;;;;1.65;0.70;;;;;;;;;;4332695;33;20144;-72
2021/04/11 15:16:50;;;;;;;3.05;0.80;;;;;;;;;;4332240;33;20144;-71
2021/04/11 15:19:35;;;;;;;2.05;0.70;;;;;;;;;;4332835;33;20226;-72
2021/04/11 15:22:00;;;;;;;3.03;0.80;;;;;;;;;;4330748;33;20197;-71
2021/04/11 15:24:35;;;;;;;2.05;0.70;;;;;;;;;;4332211;33;20144;-72
2021/04/11 15:27:04;;;;;;;2.85;0.80;;;;;;;;;;4332143;33;20202;-69
2021/04/11 15:29:36;;;;;;;3.75;0.90;;;;;;;;;;4330580;33;20233;-70
2021/04/11 15:32:12;;;;;;;5.15;1.00;;;;;;;;;;4332435;33;20143;-73
2021/04/11 15:34:48;;;;;;;3.12;0.90;;;;;;;;;;4332237;33;20153;-70
2021/04/11 15:37:43;;;;;;;4.10;1.05;;;;;;;;;;4331561;33;20319;-71
2021/04/11 15:40:20;;;;;;;3.55;1.02;;;;;;;;;;4324340;33;20211;-72
2021/04/11 15:42:48;;;;;;;2.08;0.80;;;;;;;;;;4331439;33;20205;-74
2021/04/11 15:45:37;;;;;;;2.65;0.80;;;;;;;;;;4332403;33;20183;-70
2021/04/11 15:48:06;;;;;;;2.75;0.90;;;;;;;;;;4332352;33;20144;-72
2021/04/11 15:50:34;;;;;;;5.03;0.70;;;;;;;;;;4331504;33;20183;-74
2021/04/11 15:53:04;;;;;;;3.08;0.93;;;;;;;;;;4318061;33;20184;-69
2021/04/11 15:55:36;;;;;;;2.80;1.00;;;;;;;;;;4328042;33;20229;-70
2021/04/11 15:58:07;;;;;;;4.03;0.77;;;;;;;;;;4329692;33;20212;-73
2021/04/11 16:00:32;;;;;;;2.05;0.70;;;;;;;;;;4328159;33;20529;-73
2021/04/11 16:03:16;;;;;;;2.37;0.80;;;;;;;;;;4330339;33;20156;-74
2021/04/11 16:06:00;;;;;;;2.30;0.83;;;;;;;;;;4324757;33;20164;-71
2021/04/11 16:08:27;;;;;;;2.50;0.80;;;;;;;;;;4315492;33;20562;-74
2021/04/11 16:11:10;;;;;;;2.25;1.00;;;;;;;;;;4316649;33;20191;-73
2021/04/11 16:13:41;;;;;;;1.67;0.80;;;;;;;;;;4329673;33;20195;-72
2021/04/11 16:16:25;;;;;;;5.43;1.12;;;;;;;;;;4331397;33;20140;-70
2021/04/11 16:19:07;;;;;;;3.40;0.80;;;;;;;;;;4331100;33;20147;-73
2021/04/11 16:21:35;;;;;;;2.12;0.60;;;;;;;;;;4331675;33;20160;-76
2021/04/11 16:24:19;;;;;;;2.75;1.00;;;;;;;;;;4330787;33;20135;-76
2021/04/11 16:26:57;;;;;;;3.78;0.85;;;;;;;;;;4330753;33;20164;-75
2021/04/11 16:29:29;;;;;;;3.50;0.90;;;;;;;;;;4330321;33;20503;-74
2021/04/11 16:32:03;;;;;;;3.45;0.93;;;;;;;;;;4330945;33;20200;-72
2021/04/11 16:35:01;;;;;;;3.55;0.88;;;;;;;;;;4330052;33;20151;-74
2021/04/11 16:37:36;;;;;;;2.87;0.80;;;;;;;;;;4313228;33;20175;-74
2021/04/11 16:40:08;;;;;;;4.37;0.90;;;;;;;;;;4330334;33;20274;-75
2021/04/11 16:42:33;;;;;;;8.43;1.20;;;;;;;;;;4329573;33;20163;-74
2021/04/11 16:45:05;;;;;;;2.80;0.98;;;;;;;;;;4330366;33;20561;-75
2021/04/11 16:47:41;;;;;;;2.30;0.77;;;;;;;;;;4330969;33;20140;-74
2021/04/11 16:50:27;;;;;;;2.75;0.90;;;;;;;;;;4331680;33;20127;-75
2021/04/11 16:53:00;;;;;;;4.87;1.00;;;;;;;;;;4329144;33;20198;-72
2021/04/11 16:55:31;;;;;;;1.50;0.93;;;;;;;;;;4331317;33;20167;-75
2021/04/11 16:58:15;;;;;;;4.60;0.95;;;;;;;;;;4332062;33;20182;-70
2021/04/11 17:00:46;;;;;;;3.07;1.10;;;;;;;;;;4330618;33;20167;-76
2021/04/11 17:03:17;;;;;;;1.85;0.90;;;;;;;;;;4331413;33;20133;-73
2021/04/11 17:05:55;;;;;;;4.22;1.20;;;;;;;;;;4329311;33;20660;-75